sensor_id;sensor_type;location;lat;lon;timestamp;temperature;humidity
7622;DHT22;3852;52.284;8.032;2022-10-15T00:00:44;12.90;99.90
7622;DHT22;3852;52.284;8.032;2022-10-15T00:03:10;12.90;99.90
7622;DHT22;3852;52.284;8.032;2022-10-15T00:05:37;12.90;99.90
7622;DHT22;3852;52.284;8.032;2022-10-15T00:08:04;12.80;99.90
7622;DHT22;3852;52.284;8.032;2022-10-15T00:10:31;12.80;99.90
7622;DHT22;3852;52.284;8.032;2022-10-15T00:12:57;12.80;99.90
7622;DHT22;3852;52.284;8.032;2022-10-15T00:15:23;12.80;99.90
7622;DHT22;3852;52.284;8.032;2022-10-15T00:17:48;12.80;99.90
7622;DHT22;3852;52.284;8.032;2022-10-15T00:20:14;12.80;99.90
7622;DHT22;3852;52.284;8.032;2022-10-15T00:22:40;12.80;99.90
7622;DHT22;3852;52.284;8.032;2022-10-15T00:25:07;12.80;99.90
7622;DHT22;3852;52.284;8.032;2022-10-15T00:27:34;12.90;99.90
7622;DHT22;3852;52.284;8.032;2022-10-15T00:30:00;12.90;99.90
7622;DHT22;3852;52.284;8.032;2022-10-15T00:32:28;13.00;99.90
7622;DHT22;3852;52.284;8.032;2022-10-15T00:34:55;13.10;99.90
7622;DHT22;3852;52.284;8.032;2022-10-15T00:37:21;13.10;99.90
7622;DHT22;3852;52.284;8.032;2022-10-15T00:39:47;13.10;99.90
7622;DHT22;3852;52.284;8.032;2022-10-15T00:42:13;13.10;99.90
7622;DHT22;3852;52.284;8.032;2022-10-15T00:47:42;13.10;99.90
7622;DHT22;3852;52.284;8.032;2022-10-15T00:50:21;13.00;99.90
7622;DHT22;3852;52.284;8.032;2022-10-15T00:55:38;13.00;99.90
7622;DHT22;3852;52.284;8.032;2022-10-15T00:58:11;13.00;99.90
7622;DHT22;3852;52.284;8.032;2022-10-15T01:00:38;12.90;99.90
7622;DHT22;3852;52.284;8.032;2022-10-15T01:03:04;12.90;99.90
7622;DHT22;3852;52.284;8.032;2022-10-15T01:05:30;12.90;99.90
7622;DHT22;3852;52.284;8.032;2022-10-15T01:07:56;12.90;99.90
7622;DHT22;3852;52.284;8.032;2022-10-15T01:10:30;12.80;99.90
7622;DHT22;3852;52.284;8.032;2022-10-15T01:13:13;12.80;99.90
7622;DHT22;3852;52.284;8.032;2022-10-15T01:16:01;12.80;99.90
7622;DHT22;3852;52.284;8.032;2022-10-15T01:18:40;12.60;99.90
7622;DHT22;3852;52.284;8.032;2022-10-15T01:21:16;12.60;99.90
7622;DHT22;3852;52.284;8.032;2022-10-15T01:32:37;13.00;99.90
7622;DHT22;3852;52.284;8.032;2022-10-15T01:35:39;13.10;99.90
7622;DHT22;3852;52.284;8.032;2022-10-15T01:44:01;13.20;99.90
7622;DHT22;3852;52.284;8.032;2022-10-15T01:46:52;13.20;99.90
7622;DHT22;3852;52.284;8.032;2022-10-15T01:49:24;13.20;99.90
7622;DHT22;3852;52.284;8.032;2022-10-15T01:51:54;13.20;99.90
7622;DHT22;3852;52.284;8.032;2022-10-15T01:54:24;13.30;99.90
7622;DHT22;3852;52.284;8.032;2022-10-15T01:56:51;13.30;99.90
7622;DHT22;3852;52.284;8.032;2022-10-15T01:59:22;13.30;99.90
7622;DHT22;3852;52.284;8.032;2022-10-15T02:01:49;13.30;99.90
7622;DHT22;3852;52.284;8.032;2022-10-15T02:06:49;13.30;99.90
7622;DHT22;3852;52.284;8.032;2022-10-15T02:12:39;13.20;99.90
7622;DHT22;3852;52.284;8.032;2022-10-15T02:18:00;13.20;99.90
7622;DHT22;3852;52.284;8.032;2022-10-15T02:20:56;13.20;99.90
7622;DHT22;3852;52.284;8.032;2022-10-15T02:23:48;13.20;99.90
7622;DHT22;3852;52.284;8.032;2022-10-15T02:26:17;13.20;99.90
7622;DHT22;3852;52.284;8.032;2022-10-15T02:28:49;13.20;99.90
7622;DHT22;3852;52.284;8.032;2022-10-15T02:31:22;13.20;99.90
7622;DHT22;3852;52.284;8.032;2022-10-15T02:33:51;13.10;99.90
7622;DHT22;3852;52.284;8.032;2022-10-15T02:36:19;13.10;99.90
7622;DHT22;3852;52.284;8.032;2022-10-15T02:38:46;13.20;99.90
7622;DHT22;3852;52.284;8.032;2022-10-15T02:41:12;13.20;99.90
7622;DHT22;3852;52.284;8.032;2022-10-15T02:43:39;13.10;99.90
7622;DHT22;3852;52.284;8.032;2022-10-15T02:46:07;13.10;99.90
7622;DHT22;3852;52.284;8.032;2022-10-15T02:48:37;13.10;99.90
7622;DHT22;3852;52.284;8.032;2022-10-15T02:51:03;13.00;99.90
7622;DHT22;3852;52.284;8.032;2022-10-15T02:53:29;13.00;99.90
7622;DHT22;3852;52.284;8.032;2022-10-15T02:55:55;13.00;99.90
7622;DHT22;3852;52.284;8.032;2022-10-15T02:58:20;12.90;99.90
7622;DHT22;3852;52.284;8.032;2022-10-15T03:00:46;12.90;99.90
7622;DHT22;3852;52.284;8.032;2022-10-15T03:03:12;12.80;99.90
7622;DHT22;3852;52.284;8.032;2022-10-15T03:05:38;12.90;99.90
7622;DHT22;3852;52.284;8.032;2022-10-15T03:08:06;12.90;99.90
7622;DHT22;3852;52.284;8.032;2022-10-15T03:10:32;12.80;99.90
7622;DHT22;3852;52.284;8.032;2022-10-15T03:13:02;12.80;99.90
7622;DHT22;3852;52.284;8.032;2022-10-15T03:15:28;12.80;99.90
7622;DHT22;3852;52.284;8.032;2022-10-15T03:17:54;12.80;99.90
7622;DHT22;3852;52.284;8.032;2022-10-15T03:20:20;12.70;99.90
7622;DHT22;3852;52.284;8.032;2022-10-15T03:22:45;12.70;99.90
7622;DHT22;3852;52.284;8.032;2022-10-15T03:25:11;12.70;99.90
7622;DHT22;3852;52.284;8.032;2022-10-15T03:27:37;12.70;99.90
7622;DHT22;3852;52.284;8.032;2022-10-15T03:30:03;12.60;99.90
7622;DHT22;3852;52.284;8.032;2022-10-15T03:32:30;12.70;99.90
7622;DHT22;3852;52.284;8.032;2022-10-15T03:34:55;12.70;99.90
7622;DHT22;3852;52.284;8.032;2022-10-15T03:37:21;12.70;99.90
7622;DHT22;3852;52.284;8.032;2022-10-15T03:39:47;12.70;99.90
7622;DHT22;3852;52.284;8.032;2022-10-15T03:42:13;12.70;99.90
7622;DHT22;3852;52.284;8.032;2022-10-15T03:44:39;12.70;99.90
7622;DHT22;3852;52.284;8.032;2022-10-15T03:47:05;12.70;99.90
7622;DHT22;3852;52.284;8.032;2022-10-15T03:49:30;12.70;99.90
7622;DHT22;3852;52.284;8.032;2022-10-15T03:51:56;12.70;99.90
7622;DHT22;3852;52.284;8.032;2022-10-15T03:54:22;12.70;99.90
7622;DHT22;3852;52.284;8.032;2022-10-15T03:56:48;12.60;99.90
7622;DHT22;3852;52.284;8.032;2022-10-15T03:59:13;12.60;99.90
7622;DHT22;3852;52.284;8.032;2022-10-15T04:01:40;12.60;99.90
7622;DHT22;3852;52.284;8.032;2022-10-15T04:04:10;12.60;99.90
7622;DHT22;3852;52.284;8.032;2022-10-15T04:06:37;12.60;99.90
7622;DHT22;3852;52.284;8.032;2022-10-15T04:09:03;12.60;99.90
7622;DHT22;3852;52.284;8.032;2022-10-15T04:11:29;12.60;99.90
7622;DHT22;3852;52.284;8.032;2022-10-15T04:13:55;12.60;99.90
7622;DHT22;3852;52.284;8.032;2022-10-15T04:16:21;12.60;99.90
7622;DHT22;3852;52.284;8.032;2022-10-15T04:18:47;12.50;99.90
7622;DHT22;3852;52.284;8.032;2022-10-15T04:21:12;12.50;99.90
7622;DHT22;3852;52.284;8.032;2022-10-15T04:23:41;12.50;99.90
7622;DHT22;3852;52.284;8.032;2022-10-15T04:26:07;12.50;99.90
7622;DHT22;3852;52.284;8.032;2022-10-15T04:28:33;12.50;99.90
7622;DHT22;3852;52.284;8.032;2022-10-15T04:30:59;12.50;99.90
7622;DHT22;3852;52.284;8.032;2022-10-15T04:33:26;12.50;99.90
7622;DHT22;3852;52.284;8.032;2022-10-15T04:36:05;12.60;99.90
7622;DHT22;3852;52.284;8.032;2022-10-15T04:38:33;12.50;99.90
7622;DHT22;3852;52.284;8.032;2022-10-15T04:41:00;12.40;99.90
7622;DHT22;3852;52.284;8.032;2022-10-15T04:43:27;12.40;99.90
7622;DHT22;3852;52.284;8.032;2022-10-15T04:45:58;12.30;99.90
7622;DHT22;3852;52.284;8.032;2022-10-15T04:48:26;12.10;99.90
7622;DHT22;3852;52.284;8.032;2022-10-15T04:50:52;12.20;99.90
7622;DHT22;3852;52.284;8.032;2022-10-15T04:53:19;12.20;99.90
7622;DHT22;3852;52.284;8.032;2022-10-15T04:55:45;12.30;99.90
7622;DHT22;3852;52.284;8.032;2022-10-15T04:58:11;12.20;99.90
7622;DHT22;3852;52.284;8.032;2022-10-15T05:00:38;12.30;99.90
7622;DHT22;3852;52.284;8.032;2022-10-15T05:03:04;12.30;99.90
7622;DHT22;3852;52.284;8.032;2022-10-15T05:05:31;12.30;99.90
7622;DHT22;3852;52.284;8.032;2022-10-15T05:08:03;12.30;99.90
7622;DHT22;3852;52.284;8.032;2022-10-15T05:10:30;12.30;99.90
7622;DHT22;3852;52.284;8.032;2022-10-15T05:12:56;12.40;99.90
7622;DHT22;3852;52.284;8.032;2022-10-15T05:15:23;12.50;99.90
7622;DHT22;3852;52.284;8.032;2022-10-15T05:17:50;12.40;99.90
7622;DHT22;3852;52.284;8.032;2022-10-15T05:20:16;12.50;99.90
7622;DHT22;3852;52.284;8.032;2022-10-15T05:22:41;12.40;99.90
7622;DHT22;3852;52.284;8.032;2022-10-15T05:25:08;12.40;99.90
7622;DHT22;3852;52.284;8.032;2022-10-15T05:27:33;12.40;99.90
7622;DHT22;3852;52.284;8.032;2022-10-15T05:29:59;12.50;99.90
7622;DHT22;3852;52.284;8.032;2022-10-15T05:32:25;12.40;99.90
7622;DHT22;3852;52.284;8.032;2022-10-15T05:34:51;12.50;99.90
7622;DHT22;3852;52.284;8.032;2022-10-15T05:37:17;12.50;99.90
7622;DHT22;3852;52.284;8.032;2022-10-15T05:39:42;12.40;99.90
7622;DHT22;3852;52.284;8.032;2022-10-15T05:42:08;12.40;99.90
7622;DHT22;3852;52.284;8.032;2022-10-15T05:44:34;12.40;99.90
7622;DHT22;3852;52.284;8.032;2022-10-15T05:47:00;12.40;99.90
7622;DHT22;3852;52.284;8.032;2022-10-15T05:49:26;12.30;99.90
7622;DHT22;3852;52.284;8.032;2022-10-15T05:51:52;12.40;99.90
7622;DHT22;3852;52.284;8.032;2022-10-15T05:54:17;12.50;99.90
7622;DHT22;3852;52.284;8.032;2022-10-15T05:56:43;12.40;99.90
7622;DHT22;3852;52.284;8.032;2022-10-15T05:59:09;12.40;99.90
7622;DHT22;3852;52.284;8.032;2022-10-15T06:01:35;12.30;99.90
7622;DHT22;3852;52.284;8.032;2022-10-15T06:04:02;12.40;99.90
7622;DHT22;3852;52.284;8.032;2022-10-15T06:06:28;12.30;99.90
7622;DHT22;3852;52.284;8.032;2022-10-15T06:08:54;12.40;99.90
7622;DHT22;3852;52.284;8.032;2022-10-15T06:11:20;12.30;99.90
7622;DHT22;3852;52.284;8.032;2022-10-15T06:13:46;12.30;99.90
7622;DHT22;3852;52.284;8.032;2022-10-15T06:16:14;12.20;99.90
7622;DHT22;3852;52.284;8.032;2022-10-15T06:18:40;12.20;99.90
7622;DHT22;3852;52.284;8.032;2022-10-15T06:21:07;12.20;99.90
7622;DHT22;3852;52.284;8.032;2022-10-15T06:23:34;12.20;99.90
7622;DHT22;3852;52.284;8.032;2022-10-15T06:26:04;12.20;99.90
7622;DHT22;3852;52.284;8.032;2022-10-15T06:28:32;12.20;99.90
7622;DHT22;3852;52.284;8.032;2022-10-15T06:30:59;12.20;99.90
7622;DHT22;3852;52.284;8.032;2022-10-15T06:33:26;12.30;99.90
7622;DHT22;3852;52.284;8.032;2022-10-15T06:35:52;12.30;99.90
7622;DHT22;3852;52.284;8.032;2022-10-15T06:38:18;12.30;99.90
7622;DHT22;3852;52.284;8.032;2022-10-15T06:40:44;12.30;99.90
7622;DHT22;3852;52.284;8.032;2022-10-15T06:43:10;12.40;99.90
7622;DHT22;3852;52.284;8.032;2022-10-15T06:45:39;12.40;99.90
7622;DHT22;3852;52.284;8.032;2022-10-15T06:48:07;12.40;99.90
7622;DHT22;3852;52.284;8.032;2022-10-15T06:50:37;12.40;99.90
7622;DHT22;3852;52.284;8.032;2022-10-15T06:53:04;12.40;99.90
7622;DHT22;3852;52.284;8.032;2022-10-15T06:55:31;12.40;99.90
7622;DHT22;3852;52.284;8.032;2022-10-15T06:57:57;12.40;99.90
7622;DHT22;3852;52.284;8.032;2022-10-15T07:00:23;12.40;99.90
7622;DHT22;3852;52.284;8.032;2022-10-15T07:02:50;12.40;99.90
7622;DHT22;3852;52.284;8.032;2022-10-15T07:05:16;12.40;99.90
7622;DHT22;3852;52.284;8.032;2022-10-15T07:07:53;12.40;99.90
7622;DHT22;3852;52.284;8.032;2022-10-15T07:10:20;12.40;99.90
7622;DHT22;3852;52.284;8.032;2022-10-15T07:12:46;12.50;99.90
7622;DHT22;3852;52.284;8.032;2022-10-15T07:15:12;12.60;99.90
7622;DHT22;3852;52.284;8.032;2022-10-15T07:17:38;12.80;99.90
7622;DHT22;3852;52.284;8.032;2022-10-15T07:20:05;12.80;99.90
7622;DHT22;3852;52.284;8.032;2022-10-15T07:22:31;12.90;99.90
7622;DHT22;3852;52.284;8.032;2022-10-15T07:24:57;12.80;99.90
7622;DHT22;3852;52.284;8.032;2022-10-15T07:27:23;12.80;99.90
7622;DHT22;3852;52.284;8.032;2022-10-15T07:29:49;12.90;99.90
7622;DHT22;3852;52.284;8.032;2022-10-15T07:32:14;12.90;99.90
7622;DHT22;3852;52.284;8.032;2022-10-15T07:34:40;12.90;99.90
7622;DHT22;3852;52.284;8.032;2022-10-15T07:37:06;12.90;99.90
7622;DHT22;3852;52.284;8.032;2022-10-15T07:39:32;13.10;99.90
7622;DHT22;3852;52.284;8.032;2022-10-15T07:41:57;13.10;99.90
7622;DHT22;3852;52.284;8.032;2022-10-15T07:44:23;13.10;99.90
7622;DHT22;3852;52.284;8.032;2022-10-15T07:46:49;13.00;99.90
7622;DHT22;3852;52.284;8.032;2022-10-15T07:49:15;13.00;99.90
7622;DHT22;3852;52.284;8.032;2022-10-15T07:51:41;13.10;99.90
7622;DHT22;3852;52.284;8.032;2022-10-15T07:54:07;13.10;99.90
7622;DHT22;3852;52.284;8.032;2022-10-15T07:56:33;13.20;99.90
7622;DHT22;3852;52.284;8.032;2022-10-15T07:58:58;13.30;99.90
7622;DHT22;3852;52.284;8.032;2022-10-15T08:01:24;13.30;99.90
7622;DHT22;3852;52.284;8.032;2022-10-15T08:03:50;13.30;99.90
7622;DHT22;3852;52.284;8.032;2022-10-15T08:06:16;13.30;99.90
7622;DHT22;3852;52.284;8.032;2022-10-15T08:08:44;13.40;99.90
7622;DHT22;3852;52.284;8.032;2022-10-15T08:11:12;13.60;99.90
7622;DHT22;3852;52.284;8.032;2022-10-15T08:13:40;13.60;99.90
7622;DHT22;3852;52.284;8.032;2022-10-15T08:16:10;13.70;99.90
7622;DHT22;3852;52.284;8.032;2022-10-15T08:18:38;13.70;99.90
7622;DHT22;3852;52.284;8.032;2022-10-15T08:21:05;13.60;99.90
7622;DHT22;3852;52.284;8.032;2022-10-15T08:23:32;13.60;99.90
7622;DHT22;3852;52.284;8.032;2022-10-15T08:25:59;13.60;99.90
7622;DHT22;3852;52.284;8.032;2022-10-15T08:28:26;13.70;99.90
7622;DHT22;3852;52.284;8.032;2022-10-15T08:30:52;13.50;99.90
7622;DHT22;3852;52.284;8.032;2022-10-15T08:33:18;13.60;99.90
7622;DHT22;3852;52.284;8.032;2022-10-15T08:35:44;13.60;99.90
7622;DHT22;3852;52.284;8.032;2022-10-15T08:38:10;13.50;99.90
7622;DHT22;3852;52.284;8.032;2022-10-15T08:40:36;13.60;99.90
7622;DHT22;3852;52.284;8.032;2022-10-15T08:43:03;13.70;99.90
7622;DHT22;3852;52.284;8.032;2022-10-15T08:45:37;13.70;99.90
7622;DHT22;3852;52.284;8.032;2022-10-15T08:48:11;13.80;99.90
7622;DHT22;3852;52.284;8.032;2022-10-15T08:50:41;13.80;99.90
7622;DHT22;3852;52.284;8.032;2022-10-15T08:53:18;13.80;99.90
7622;DHT22;3852;52.284;8.032;2022-10-15T08:55:47;13.80;99.90
7622;DHT22;3852;52.284;8.032;2022-10-15T08:58:40;13.90;99.90
7622;DHT22;3852;52.284;8.032;2022-10-15T09:07:38;14.20;99.90
7622;DHT22;3852;52.284;8.032;2022-10-15T09:15:50;14.30;99.90
7622;DHT22;3852;52.284;8.032;2022-10-15T09:18:24;14.40;99.90
7622;DHT22;3852;52.284;8.032;2022-10-15T09:20:55;14.50;99.90
7622;DHT22;3852;52.284;8.032;2022-10-15T09:23:26;14.50;99.90
7622;DHT22;3852;52.284;8.032;2022-10-15T09:32:18;14.60;99.90
7622;DHT22;3852;52.284;8.032;2022-10-15T09:40:54;14.70;99.90
7622;DHT22;3852;52.284;8.032;2022-10-15T09:43:33;14.70;99.90
7622;DHT22;3852;52.284;8.032;2022-10-15T09:46:04;14.70;99.90
7622;DHT22;3852;52.284;8.032;2022-10-15T09:48:35;14.70;99.90
7622;DHT22;3852;52.284;8.032;2022-10-15T09:51:33;14.70;99.90
7622;DHT22;3852;52.284;8.032;2022-10-15T09:54:13;14.80;99.90
7622;DHT22;3852;52.284;8.032;2022-10-15T09:57:08;14.80;99.90
7622;DHT22;3852;52.284;8.032;2022-10-15T09:59:36;14.90;99.90
7622;DHT22;3852;52.284;8.032;2022-10-15T10:02:18;15.00;99.90
7622;DHT22;3852;52.284;8.032;2022-10-15T10:04:44;15.10;99.90
7622;DHT22;3852;52.284;8.032;2022-10-15T10:07:35;15.20;99.90
7622;DHT22;3852;52.284;8.032;2022-10-15T10:10:24;15.20;99.90
7622;DHT22;3852;52.284;8.032;2022-10-15T10:12:53;15.20;99.90
7622;DHT22;3852;52.284;8.032;2022-10-15T10:15:35;15.40;99.90
7622;DHT22;3852;52.284;8.032;2022-10-15T10:18:04;15.60;99.90
7622;DHT22;3852;52.284;8.032;2022-10-15T10:20:32;15.60;99.90
7622;DHT22;3852;52.284;8.032;2022-10-15T10:23:18;15.50;99.90
7622;DHT22;3852;52.284;8.032;2022-10-15T10:25:47;15.30;99.90
7622;DHT22;3852;52.284;8.032;2022-10-15T10:28:21;15.20;99.90
7622;DHT22;3852;52.284;8.032;2022-10-15T10:31:10;15.20;99.90
7622;DHT22;3852;52.284;8.032;2022-10-15T10:36:26;15.10;99.90
7622;DHT22;3852;52.284;8.032;2022-10-15T10:41:59;15.20;99.90
7622;DHT22;3852;52.284;8.032;2022-10-15T10:49:43;15.50;99.90
7622;DHT22;3852;52.284;8.032;2022-10-15T10:52:29;15.60;99.90
7622;DHT22;3852;52.284;8.032;2022-10-15T10:55:22;15.80;99.90
7622;DHT22;3852;52.284;8.032;2022-10-15T10:57:58;15.90;99.90
7622;DHT22;3852;52.284;8.032;2022-10-15T11:00:40;16.10;99.90
7622;DHT22;3852;52.284;8.032;2022-10-15T11:06:17;16.30;99.90
7622;DHT22;3852;52.284;8.032;2022-10-15T11:23:42;16.70;99.90
7622;DHT22;3852;52.284;8.032;2022-10-15T11:29:37;16.90;99.90
7622;DHT22;3852;52.284;8.032;2022-10-15T11:32:33;17.00;99.90
7622;DHT22;3852;52.284;8.032;2022-10-15T11:38:20;17.20;99.90
7622;DHT22;3852;52.284;8.032;2022-10-15T11:47:20;17.40;99.90
7622;DHT22;3852;52.284;8.032;2022-10-15T11:55:50;17.70;99.90
7622;DHT22;3852;52.284;8.032;2022-10-15T11:58:31;17.60;99.90
7622;DHT22;3852;52.284;8.032;2022-10-15T12:01:08;17.50;99.90
7622;DHT22;3852;52.284;8.032;2022-10-15T12:03:51;17.50;99.90
7622;DHT22;3852;52.284;8.032;2022-10-15T12:06:23;17.50;99.90
7622;DHT22;3852;52.284;8.032;2022-10-15T12:08:52;17.50;99.90
7622;DHT22;3852;52.284;8.032;2022-10-15T12:11:44;17.50;99.90
7622;DHT22;3852;52.284;8.032;2022-10-15T12:16:58;17.70;99.90
7622;DHT22;3852;52.284;8.032;2022-10-15T12:19:51;18.00;99.90
7622;DHT22;3852;52.284;8.032;2022-10-15T12:31:03;17.90;99.90
7622;DHT22;3852;52.284;8.032;2022-10-15T12:33:36;17.70;99.90
7622;DHT22;3852;52.284;8.032;2022-10-15T12:36:05;17.70;99.90
7622;DHT22;3852;52.284;8.032;2022-10-15T12:39:04;17.50;99.90
7622;DHT22;3852;52.284;8.032;2022-10-15T12:44:30;17.40;99.90
7622;DHT22;3852;52.284;8.032;2022-10-15T12:46:57;17.40;99.90
7622;DHT22;3852;52.284;8.032;2022-10-15T12:51:57;17.00;99.90
7622;DHT22;3852;52.284;8.032;2022-10-15T12:54:45;16.90;99.90
7622;DHT22;3852;52.284;8.032;2022-10-15T12:59:57;16.80;99.90
7622;DHT22;3852;52.284;8.032;2022-10-15T13:02:42;16.80;99.90
7622;DHT22;3852;52.284;8.032;2022-10-15T13:05:25;16.80;99.90
7622;DHT22;3852;52.284;8.032;2022-10-15T13:07:57;16.80;99.90
7622;DHT22;3852;52.284;8.032;2022-10-15T13:10:32;16.80;99.90
7622;DHT22;3852;52.284;8.032;2022-10-15T13:13:02;16.70;99.90
7622;DHT22;3852;52.284;8.032;2022-10-15T13:15:30;16.70;99.90
7622;DHT22;3852;52.284;8.032;2022-10-15T13:17:59;16.80;99.90
7622;DHT22;3852;52.284;8.032;2022-10-15T13:20:36;16.80;99.90
7622;DHT22;3852;52.284;8.032;2022-10-15T13:26:24;16.60;99.90
7622;DHT22;3852;52.284;8.032;2022-10-15T13:28:57;16.50;99.90
7622;DHT22;3852;52.284;8.032;2022-10-15T13:31:29;16.40;99.90
7622;DHT22;3852;52.284;8.032;2022-10-15T13:36:35;16.40;99.90
7622;DHT22;3852;52.284;8.032;2022-10-15T13:39:05;16.40;99.90
7622;DHT22;3852;52.284;8.032;2022-10-15T13:41:37;16.40;99.90
7622;DHT22;3852;52.284;8.032;2022-10-15T13:44:05;16.40;99.90
7622;DHT22;3852;52.284;8.032;2022-10-15T13:46:36;16.40;99.90
7622;DHT22;3852;52.284;8.032;2022-10-15T13:49:09;16.40;99.90
7622;DHT22;3852;52.284;8.032;2022-10-15T13:51:39;16.30;99.90
7622;DHT22;3852;52.284;8.032;2022-10-15T13:54:16;16.30;99.90
7622;DHT22;3852;52.284;8.032;2022-10-15T13:56:55;16.30;99.90
7622;DHT22;3852;52.284;8.032;2022-10-15T13:59:24;16.30;99.90
7622;DHT22;3852;52.284;8.032;2022-10-15T14:01:57;16.40;99.90
7622;DHT22;3852;52.284;8.032;2022-10-15T14:04:30;16.30;99.90
7622;DHT22;3852;52.284;8.032;2022-10-15T14:07:19;16.30;99.90
7622;DHT22;3852;52.284;8.032;2022-10-15T14:09:47;16.30;99.90
7622;DHT22;3852;52.284;8.032;2022-10-15T14:12:13;16.30;99.90
7622;DHT22;3852;52.284;8.032;2022-10-15T14:14:41;16.30;99.90
7622;DHT22;3852;52.284;8.032;2022-10-15T14:17:31;16.30;99.90
7622;DHT22;3852;52.284;8.032;2022-10-15T14:20:00;16.30;99.90
7622;DHT22;3852;52.284;8.032;2022-10-15T14:22:28;16.30;99.90
7622;DHT22;3852;52.284;8.032;2022-10-15T14:24:55;16.20;99.90
7622;DHT22;3852;52.284;8.032;2022-10-15T14:27:25;16.20;99.90
7622;DHT22;3852;52.284;8.032;2022-10-15T14:29:54;16.10;99.90
7622;DHT22;3852;52.284;8.032;2022-10-15T14:32:44;16.20;99.90
7622;DHT22;3852;52.284;8.032;2022-10-15T14:35:24;16.20;99.90
7622;DHT22;3852;52.284;8.032;2022-10-15T14:38:01;16.30;99.90
7622;DHT22;3852;52.284;8.032;2022-10-15T14:40:39;16.20;99.90
7622;DHT22;3852;52.284;8.032;2022-10-15T14:43:14;16.20;99.90
7622;DHT22;3852;52.284;8.032;2022-10-15T14:45:56;16.20;99.90
7622;DHT22;3852;52.284;8.032;2022-10-15T14:48:26;16.20;99.90
7622;DHT22;3852;52.284;8.032;2022-10-15T14:51:00;16.20;99.90
7622;DHT22;3852;52.284;8.032;2022-10-15T14:53:32;16.20;99.90
7622;DHT22;3852;52.284;8.032;2022-10-15T14:56:08;16.20;99.90
7622;DHT22;3852;52.284;8.032;2022-10-15T14:58:53;16.20;99.90
7622;DHT22;3852;52.284;8.032;2022-10-15T15:01:21;16.30;99.90
7622;DHT22;3852;52.284;8.032;2022-10-15T15:03:50;16.30;99.90
7622;DHT22;3852;52.284;8.032;2022-10-15T15:06:17;16.30;99.90
7622;DHT22;3852;52.284;8.032;2022-10-15T15:08:43;16.30;99.90
7622;DHT22;3852;52.284;8.032;2022-10-15T15:11:13;16.30;99.90
7622;DHT22;3852;52.284;8.032;2022-10-15T15:13:44;16.30;99.90
7622;DHT22;3852;52.284;8.032;2022-10-15T15:16:15;16.30;99.90
7622;DHT22;3852;52.284;8.032;2022-10-15T15:18:41;16.40;99.90
7622;DHT22;3852;52.284;8.032;2022-10-15T15:21:12;16.40;99.90
7622;DHT22;3852;52.284;8.032;2022-10-15T15:23:39;16.40;99.90
7622;DHT22;3852;52.284;8.032;2022-10-15T15:26:05;16.40;99.90
7622;DHT22;3852;52.284;8.032;2022-10-15T15:28:31;16.40;99.90
7622;DHT22;3852;52.284;8.032;2022-10-15T15:31:01;16.50;99.90
7622;DHT22;3852;52.284;8.032;2022-10-15T15:33:30;16.50;99.90
7622;DHT22;3852;52.284;8.032;2022-10-15T15:36:01;16.50;99.90
7622;DHT22;3852;52.284;8.032;2022-10-15T15:38:41;16.50;99.90
7622;DHT22;3852;52.284;8.032;2022-10-15T15:41:10;16.50;99.90
7622;DHT22;3852;52.284;8.032;2022-10-15T15:43:46;16.50;99.90
7622;DHT22;3852;52.284;8.032;2022-10-15T15:46:12;16.60;99.90
7622;DHT22;3852;52.284;8.032;2022-10-15T15:48:39;16.60;99.90
7622;DHT22;3852;52.284;8.032;2022-10-15T15:51:25;16.60;99.90
7622;DHT22;3852;52.284;8.032;2022-10-15T15:53:53;16.60;99.90
7622;DHT22;3852;52.284;8.032;2022-10-15T15:56:20;16.60;99.90
7622;DHT22;3852;52.284;8.032;2022-10-15T15:58:47;16.70;99.90
7622;DHT22;3852;52.284;8.032;2022-10-15T16:01:15;16.70;99.90
7622;DHT22;3852;52.284;8.032;2022-10-15T16:03:42;16.70;99.90
7622;DHT22;3852;52.284;8.032;2022-10-15T16:06:08;16.70;99.90
7622;DHT22;3852;52.284;8.032;2022-10-15T16:08:35;16.70;99.90
7622;DHT22;3852;52.284;8.032;2022-10-15T16:11:02;16.60;99.90
7622;DHT22;3852;52.284;8.032;2022-10-15T16:13:29;16.60;99.90
7622;DHT22;3852;52.284;8.032;2022-10-15T16:15:55;16.70;99.90
7622;DHT22;3852;52.284;8.032;2022-10-15T16:18:21;16.60;99.90
7622;DHT22;3852;52.284;8.032;2022-10-15T16:20:47;16.70;99.90
7622;DHT22;3852;52.284;8.032;2022-10-15T16:23:14;16.70;99.90
7622;DHT22;3852;52.284;8.032;2022-10-15T16:25:40;16.70;99.90
7622;DHT22;3852;52.284;8.032;2022-10-15T16:28:06;16.60;99.90
7622;DHT22;3852;52.284;8.032;2022-10-15T16:30:32;16.60;99.90
7622;DHT22;3852;52.284;8.032;2022-10-15T16:32:58;16.60;99.90
7622;DHT22;3852;52.284;8.032;2022-10-15T16:35:24;16.70;99.90
7622;DHT22;3852;52.284;8.032;2022-10-15T16:37:49;16.70;99.90
7622;DHT22;3852;52.284;8.032;2022-10-15T16:40:20;16.70;99.90
7622;DHT22;3852;52.284;8.032;2022-10-15T16:42:46;16.60;99.90
7622;DHT22;3852;52.284;8.032;2022-10-15T16:45:12;16.70;99.90
7622;DHT22;3852;52.284;8.032;2022-10-15T16:47:38;16.70;99.90
7622;DHT22;3852;52.284;8.032;2022-10-15T16:50:04;16.70;99.90
7622;DHT22;3852;52.284;8.032;2022-10-15T16:52:32;16.70;99.90
7622;DHT22;3852;52.284;8.032;2022-10-15T16:54:58;16.70;99.90
7622;DHT22;3852;52.284;8.032;2022-10-15T16:57:25;16.70;99.90
7622;DHT22;3852;52.284;8.032;2022-10-15T16:59:51;16.70;99.90
7622;DHT22;3852;52.284;8.032;2022-10-15T17:02:16;16.70;99.90
7622;DHT22;3852;52.284;8.032;2022-10-15T17:04:42;16.80;99.90
7622;DHT22;3852;52.284;8.032;2022-10-15T17:07:08;16.80;99.90
7622;DHT22;3852;52.284;8.032;2022-10-15T17:09:34;16.80;99.90
7622;DHT22;3852;52.284;8.032;2022-10-15T17:12:00;16.80;99.90
7622;DHT22;3852;52.284;8.032;2022-10-15T17:14:27;16.80;99.90
7622;DHT22;3852;52.284;8.032;2022-10-15T17:16:53;16.80;99.90
7622;DHT22;3852;52.284;8.032;2022-10-15T17:19:23;16.80;99.90
7622;DHT22;3852;52.284;8.032;2022-10-15T17:21:50;16.80;99.90
7622;DHT22;3852;52.284;8.032;2022-10-15T17:24:18;16.80;99.90
7622;DHT22;3852;52.284;8.032;2022-10-15T17:26:44;16.80;99.90
7622;DHT22;3852;52.284;8.032;2022-10-15T17:29:19;16.80;99.90
7622;DHT22;3852;52.284;8.032;2022-10-15T17:31:47;16.70;99.90
7622;DHT22;3852;52.284;8.032;2022-10-15T17:34:13;16.60;99.90
7622;DHT22;3852;52.284;8.032;2022-10-15T17:36:42;16.60;99.90
7622;DHT22;3852;52.284;8.032;2022-10-15T17:39:11;16.60;99.90
7622;DHT22;3852;52.284;8.032;2022-10-15T17:41:38;16.60;99.90
7622;DHT22;3852;52.284;8.032;2022-10-15T17:44:04;16.60;99.90
7622;DHT22;3852;52.284;8.032;2022-10-15T17:46:30;16.60;99.90
7622;DHT22;3852;52.284;8.032;2022-10-15T17:48:57;16.60;99.90
7622;DHT22;3852;52.284;8.032;2022-10-15T17:51:28;16.50;99.90
7622;DHT22;3852;52.284;8.032;2022-10-15T17:53:57;16.50;99.90
7622;DHT22;3852;52.284;8.032;2022-10-15T17:56:32;16.50;99.90
7622;DHT22;3852;52.284;8.032;2022-10-15T17:59:00;16.40;99.90
7622;DHT22;3852;52.284;8.032;2022-10-15T18:01:31;16.40;99.90
7622;DHT22;3852;52.284;8.032;2022-10-15T18:03:58;16.30;99.90
7622;DHT22;3852;52.284;8.032;2022-10-15T18:06:24;16.30;99.90
7622;DHT22;3852;52.284;8.032;2022-10-15T18:08:50;16.20;99.90
7622;DHT22;3852;52.284;8.032;2022-10-15T18:11:23;16.20;99.90
7622;DHT22;3852;52.284;8.032;2022-10-15T18:13:53;16.10;99.90
7622;DHT22;3852;52.284;8.032;2022-10-15T18:16:20;16.20;99.90
7622;DHT22;3852;52.284;8.032;2022-10-15T18:18:46;16.10;99.90
7622;DHT22;3852;52.284;8.032;2022-10-15T18:21:14;16.20;99.90
7622;DHT22;3852;52.284;8.032;2022-10-15T18:23:41;16.20;99.90
7622;DHT22;3852;52.284;8.032;2022-10-15T18:26:11;16.10;99.90